Time;durP1;ratioP1;P1;durP2;ratioP2;P2;SDS_P1;SDS_P2;PMS_P1;PMS_P2;Temp;Humidity;BMP_temperature;BMP_pressure;BME280_temperature;BME280_humidity;BME280_pressure;Samples;Min_cycle;Max_cycle;Signal;HPM_P1;HPM_P2
2023/08/27 00:01:44;;;;;;;1.37;1.37;;;;;;;26.45;71.62;99211.91;5111934;28;20191;-77
2023/08/27 00:04:10;;;;;;;1.40;1.30;;;;;;;26.50;70.89;99209.66;5112208;28;20194;-77
2023/08/27 00:06:37;;;;;;;1.87;1.77;;;;;;;26.49;72.23;99197.50;5116310;27;20222;-76
2023/08/27 00:09:06;;;;;;;2.00;1.90;;;;;;;26.50;72.15;99193.88;5115533;27;20215;-76
2023/08/27 00:11:33;;;;;;;2.60;2.03;;;;;;;26.52;72.22;99197.19;5111605;28;20581;-77
2023/08/27 00:14:00;;;;;;;2.40;1.30;;;;;;;26.56;71.71;99193.25;5111555;27;20191;-76
2023/08/27 00:16:26;;;;;;;1.83;1.73;;;;;;;26.57;71.52;99184.41;5111540;28;20199;-76
2023/08/27 00:18:53;;;;;;;5.50;1.87;;;;;;;26.52;72.13;99173.53;5111919;28;20265;-76
2023/08/27 00:21:20;;;;;;;1.97;1.87;;;;;;;26.56;71.97;99193.25;5110362;28;20199;-76
2023/08/27 00:23:47;;;;;;;3.40;2.10;;;;;;;26.57;72.45;99194.91;5115991;27;20254;-76
2023/08/27 00:26:15;;;;;;;1.90;1.80;;;;;;;26.52;71.77;99195.41;5118424;27;20214;-77
2023/08/27 00:28:41;;;;;;;4.17;1.77;;;;;;;26.51;71.76;99201.63;5111055;28;20657;-76
2023/08/27 00:31:08;;;;;;;1.73;1.63;;;;;;;26.48;72.31;99196.66;5111497;28;20199;-76
2023/08/27 00:33:35;;;;;;;3.50;1.90;;;;;;;26.46;72.22;99195.19;5111237;28;20190;-76
2023/08/27 00:36:02;;;;;;;2.17;2.07;;;;;;;26.45;72.90;99196.16;5111747;27;20645;-76
2023/08/27 00:38:28;;;;;;;3.70;1.83;;;;;;;26.43;73.04;99192.84;5111620;28;20199;-76
2023/08/27 00:40:55;;;;;;;2.53;1.93;;;;;;;26.41;73.46;99200.03;5111779;28;20200;-77
2023/08/27 00:43:23;;;;;;;1.70;1.60;;;;;;;26.37;73.71;99188.16;5111660;28;20186;-77
2023/08/27 00:45:51;;;;;;;1.80;1.70;;;;;;;26.35;73.48;99187.50;5111319;28;20215;-76
2023/08/27 00:48:18;;;;;;;1.57;1.47;;;;;;;26.32;73.57;99182.56;5111553;28;20341;-76
2023/08/27 00:50:45;;;;;;;1.80;1.70;;;;;;;26.29;74.09;99180.22;5112010;28;20194;-76
2023/08/27 00:53:13;;;;;;;1.87;1.77;;;;;;;26.26;74.56;99180.53;5111976;28;20194;-77
2023/08/27 00:55:39;;;;;;;3.07;1.73;;;;;;;26.21;74.80;99177.50;5111612;28;20256;-77
2023/08/27 00:58:06;;;;;;;1.40;1.30;;;;;;;26.15;74.91;99162.31;5111869;28;20263;-76
2023/08/27 01:00:34;;;;;;;2.80;1.90;;;;;;;26.05;75.55;99155.34;5111271;28;20194;-76
2023/08/27 01:03:01;;;;;;;1.63;1.57;;;;;;;26.08;75.65;99162.94;5111596;28;20664;-76
2023/08/27 01:05:29;;;;;;;1.40;1.40;;;;;;;26.03;75.44;99159.94;5111613;28;20279;-76
2023/08/27 01:08:02;;;;;;;3.93;1.63;;;;;;;26.00;75.81;99162.88;5111932;28;20285;-76
2023/08/27 01:10:47;;;;;;;1.53;1.43;;;;;;;25.93;76.53;99168.84;5111531;28;20248;-76
2023/08/27 01:13:21;;;;;;;1.47;1.40;;;;;;;25.89;76.28;99173.56;5111601;28;20195;-77
2023/08/27 01:15:58;;;;;;;2.23;2.13;;;;;;;25.83;76.66;99163.66;5111383;28;20287;-76
2023/08/27 01:18:26;;;;;;;2.47;1.80;;;;;;;25.82;76.13;99172.50;5111478;28;20206;-76
2023/08/27 01:20:53;;;;;;;2.00;1.90;;;;;;;25.75;76.20;99165.38;5111486;28;20191;-76
2023/08/27 01:23:21;;;;;;;2.40;1.47;;;;;;;25.62;76.76;99154.41;5111364;28;20203;-76
2023/08/27 01:25:50;;;;;;;1.77;1.67;;;;;;;25.58;77.31;99161.75;5111068;28;20222;-77
2023/08/27 01:28:22;;;;;;;2.80;2.60;;;;;;;25.52;77.71;99164.97;5111743;28;20203;-77
2023/08/27 01:30:59;;;;;;;2.40;2.20;;;;;;;25.42;78.24;99158.91;5111079;27;20746;-76
2023/08/27 01:33:28;;;;;;;2.20;2.10;;;;;;;25.34;78.42;99161.41;5111577;28;20194;-76
2023/08/27 01:35:56;;;;;;;3.53;1.73;;;;;;;25.30;78.95;99154.84;5111307;28;20210;-76
2023/08/27 01:38:24;;;;;;;2.87;1.37;;;;;;;25.28;79.74;99156.75;5111294;28;20255;-77
2023/08/27 01:40:52;;;;;;;5.37;1.90;;;;;;;25.16;79.67;99152.66;5111414;28;20617;-76
2023/08/27 01:43:18;;;;;;;2.30;2.20;;;;;;;25.03;80.36;99153.81;5111208;28;20191;-76
2023/08/27 01:45:45;;;;;;;1.70;1.60;;;;;;;24.98;80.36;99160.44;5111288;28;20210;-76
2023/08/27 01:48:12;;;;;;;2.17;2.07;;;;;;;24.86;81.09;99153.72;5110721;28;20228;-76
2023/08/27 01:50:39;;;;;;;2.90;2.13;;;;;;;24.60;81.95;99156.09;5111117;28;20626;-76
2023/08/27 01:53:05;;;;;;;2.77;2.23;;;;;;;24.45;82.99;99165.38;5111537;28;20264;-76
2023/08/27 01:55:34;;;;;;;1.77;1.77;;;;;;;24.45;83.42;99153.09;5115306;28;20202;-76
2023/08/27 01:58:01;;;;;;;1.33;1.33;;;;;;;24.40;84.21;99149.22;5114946;28;20186;-76
2023/08/27 02:00:27;;;;;;;2.70;2.23;;;;;;;24.39;84.32;99150.22;5119798;27;20189;-76
2023/08/27 02:02:54;;;;;;;1.87;1.70;;;;;;;24.32;84.67;99152.56;5135518;27;20198;-76
2023/08/27 02:05:21;;;;;;;2.97;2.17;;;;;;;24.29;85.20;99155.47;5134988;27;20222;-76
2023/08/27 02:07:47;;;;;;;2.63;2.43;;;;;;;24.29;84.93;99157.25;5135603;27;20197;-76
2023/08/27 02:10:14;;;;;;;2.10;2.00;;;;;;;24.27;85.36;99161.78;5135553;27;20662;-76
2023/08/27 02:12:42;;;;;;;2.20;2.10;;;;;;;24.30;85.30;99154.47;5135196;27;20664;-76
2023/08/27 02:15:09;;;;;;;2.60;2.40;;;;;;;24.30;85.37;99148.41;5135123;27;20239;-76
2023/08/27 02:17:37;;;;;;;1.90;1.80;;;;;;;24.24;86.58;99151.59;5135321;27;20190;-76
2023/08/27 02:20:09;;;;;;;2.13;2.03;;;;;;;24.21;86.34;99150.06;5134416;27;20198;-77
2023/08/27 02:22:36;;;;;;;5.60;1.90;;;;;;;24.20;86.43;99148.41;5121534;27;20194;-77
2023/08/27 02:25:03;;;;;;;2.30;2.20;;;;;;;24.23;86.57;99155.19;5114323;28;20289;-76
2023/08/27 02:27:29;;;;;;;2.07;1.97;;;;;;;24.18;86.47;99149.53;5114420;27;20685;-76
2023/08/27 02:29:57;;;;;;;2.20;2.10;;;;;;;24.19;86.73;99148.56;5114575;28;20195;-76
2023/08/27 02:32:24;;;;;;;2.33;2.07;;;;;;;24.25;87.11;99148.00;5114200;28;20680;-76
2023/08/27 02:34:51;;;;;;;3.17;1.67;;;;;;;24.31;86.75;99160.56;5114383;28;20569;-76
2023/08/27 02:37:18;;;;;;;2.00;1.73;;;;;;;24.34;86.28;99142.75;5114132;28;20280;-76
2023/08/27 02:39:45;;;;;;;2.63;2.43;;;;;;;24.40;85.66;99149.22;5114408;28;20199;-76
2023/08/27 02:42:12;;;;;;;2.83;2.20;;;;;;;24.42;85.48;99157.78;5114089;28;20197;-76
2023/08/27 02:44:38;;;;;;;2.30;2.20;;;;;;;24.41;85.30;99150.88;5114283;28;20199;-76
2023/08/27 02:47:06;;;;;;;2.30;2.10;;;;;;;24.41;86.06;99159.59;5113953;28;20227;-76
2023/08/27 02:49:33;;;;;;;1.60;1.60;;;;;;;24.35;86.33;99167.16;5134762;27;20554;-76
2023/08/27 02:52:00;;;;;;;3.33;2.83;;;;;;;24.37;86.60;99149.50;5134813;27;20194;-76
2023/08/27 02:54:27;;;;;;;1.63;1.53;;;;;;;24.39;86.58;99147.59;5134370;27;20222;-76
2023/08/27 02:56:53;;;;;;;2.03;1.93;;;;;;;24.43;86.02;99148.94;5134604;27;20243;-76
2023/08/27 02:59:20;;;;;;;2.37;2.17;;;;;;;24.43;85.46;99149.78;5134244;27;20606;-76
2023/08/27 03:01:47;;;;;;;3.07;1.93;;;;;;;24.44;85.32;99151.44;5134360;27;20190;-76
2023/08/27 03:04:15;;;;;;;2.07;1.80;;;;;;;24.43;84.94;99155.03;5133928;27;20259;-76
2023/08/27 03:06:42;;;;;;;1.80;1.70;;;;;;;24.45;85.72;99153.09;5134275;27;20229;-76
2023/08/27 03:09:08;;;;;;;1.80;1.70;;;;;;;24.45;85.20;99141.78;5134135;27;20190;-76
2023/08/27 03:11:35;;;;;;;2.47;2.37;;;;;;;24.48;85.46;99149.38;5133985;27;21795;-76
2023/08/27 03:14:02;;;;;;;2.13;2.03;;;;;;;24.48;86.11;99152.00;5133947;27;20212;-76
2023/08/27 03:16:29;;;;;;;2.13;2.03;;;;;;;24.46;86.39;99146.88;5133888;27;20198;-76
2023/08/27 03:18:56;;;;;;;1.93;1.83;;;;;;;24.49;85.90;99143.16;5116702;27;20205;-76
2023/08/27 03:21:24;;;;;;;1.53;1.47;;;;;;;24.48;85.64;99155.44;5113173;28;20195;-76
2023/08/27 03:23:51;;;;;;;2.97;1.70;;;;;;;24.48;85.35;99152.00;5113307;28;20191;-76
2023/08/27 03:26:17;;;;;;;2.90;2.40;;;;;;;24.47;85.41;99145.09;5113247;28;20214;-76
2023/08/27 03:28:46;;;;;;;5.13;2.67;;;;;;;24.45;85.34;99145.25;5113059;28;20187;-76
2023/08/27 03:31:13;;;;;;;1.87;1.77;;;;;;;24.41;85.33;99141.25;5113657;28;20696;-76
2023/08/27 03:33:39;;;;;;;1.90;1.80;;;;;;;24.39;85.59;99148.44;5113080;28;20191;-76
2023/08/27 03:36:06;;;;;;;1.60;1.50;;;;;;;24.39;85.43;99147.59;5113191;28;20635;-76
2023/08/27 03:38:34;;;;;;;2.87;2.67;;;;;;;24.35;85.97;99140.97;5113131;28;20577;-77
2023/08/27 03:41:01;;;;;;;5.33;2.10;;;;;;;24.34;86.13;99144.53;5113059;28;20191;-76
2023/08/27 03:43:28;;;;;;;2.10;2.00;;;;;;;24.30;86.01;99149.25;5113568;27;20205;-75
2023/08/27 03:45:54;;;;;;;2.33;2.03;;;;;;;24.28;85.74;99143.31;5120739;27;20219;-76
2023/08/27 03:48:21;;;;;;;1.80;1.70;;;;;;;24.22;85.74;99146.50;5113310;28;20206;-76
2023/08/27 03:50:48;;;;;;;2.57;2.37;;;;;;;24.20;85.87;99150.22;5112560;27;20278;-76
2023/08/27 03:53:15;;;;;;;2.07;1.90;;;;;;;24.20;86.73;99147.59;5113042;27;20263;-76
2023/08/27 03:55:44;;;;;;;2.17;2.07;;;;;;;24.18;86.15;99136.41;5112603;28;20191;-76
2023/08/27 03:58:11;;;;;;;6.00;1.93;;;;;;;24.21;86.54;99149.25;5112858;28;20191;-76
2023/08/27 04:00:38;;;;;;;2.03;1.93;;;;;;;24.21;87.02;99138.75;5112312;28;20272;-76
2023/08/27 04:03:05;;;;;;;1.90;1.80;;;;;;;24.21;86.88;99144.84;5112247;28;20190;-76
2023/08/27 04:05:35;;;;;;;2.03;1.93;;;;;;;24.21;85.99;99146.63;5112343;28;20186;-75
2023/08/27 04:08:01;;;;;;;3.93;2.00;;;;;;;24.15;85.49;99147.19;5133094;27;20222;-76
2023/08/27 04:10:28;;;;;;;3.03;2.63;;;;;;;24.14;85.62;99153.38;5132983;27;20193;-76
2023/08/27 04:12:57;;;;;;;2.30;2.10;;;;;;;24.09;86.40;99156.38;5133172;27;20194;-76
2023/08/27 04:15:24;;;;;;;2.70;2.53;;;;;;;24.08;86.19;99157.34;5132530;27;20247;-77
2023/08/27 04:17:51;;;;;;;4.13;2.57;;;;;;;24.02;86.03;99152.66;5115885;27;20277;-76
2023/08/27 04:20:17;;;;;;;2.10;2.00;;;;;;;24.03;86.25;99173.50;5112330;28;20256;-76
2023/08/27 04:22:44;;;;;;;3.43;2.23;;;;;;;24.03;86.93;99173.50;5112335;28;20673;-76
2023/08/27 04:25:15;;;;;;;2.60;2.37;;;;;;;24.02;86.26;99174.44;5112344;28;20195;-77
2023/08/27 04:27:41;;;;;;;2.70;2.50;;;;;;;24.01;86.44;99170.16;5112154;28;20222;-77
2023/08/27 04:30:11;;;;;;;2.87;2.67;;;;;;;24.02;87.02;99168.38;5112343;28;20187;-76
2023/08/27 04:32:38;;;;;;;2.63;2.47;;;;;;;23.93;87.25;99177.06;5112129;28;20195;-76
2023/08/27 04:35:05;;;;;;;2.47;2.27;;;;;;;23.87;87.33;99173.19;5111973;28;20198;-76
2023/08/27 04:37:32;;;;;;;2.40;2.30;;;;;;;23.90;88.50;99178.16;5112009;28;20282;-76
2023/08/27 04:39:58;;;;;;;2.33;2.13;;;;;;;23.97;88.45;99168.75;5112029;28;20203;-76
2023/08/27 04:42:25;;;;;;;3.07;2.80;;;;;;;24.05;88.65;99155.84;5112102;28;20251;-76
2023/08/27 04:44:52;;;;;;;3.07;2.97;;;;;;;24.16;89.13;99167.19;5111803;28;20754;-76
2023/08/27 04:47:20;;;;;;;4.03;3.00;;;;;;;24.32;88.33;99167.44;5111903;28;20226;-76
2023/08/27 04:49:47;;;;;;;2.63;2.53;;;;;;;24.47;88.06;99161.63;5111654;28;20202;-76
2023/08/27 04:52:14;;;;;;;3.03;2.83;;;;;;;24.64;87.22;99162.72;5111803;28;20191;-76
2023/08/27 04:54:41;;;;;;;3.03;2.83;;;;;;;24.83;85.90;99165.34;5111535;28;20683;-76
2023/08/27 04:57:08;;;;;;;2.53;2.43;;;;;;;25.01;84.64;99168.03;5111097;28;20191;-76
2023/08/27 04:59:35;;;;;;;1.97;1.77;;;;;;;25.20;84.38;99151.41;5111702;28;20291;-76
2023/08/27 05:02:02;;;;;;;2.00;1.90;;;;;;;25.36;82.23;99159.50;5111662;28;20264;-76
2023/08/27 05:04:30;;;;;;;2.17;2.07;;;;;;;25.52;81.60;99157.94;5111547;28;20191;-76
2023/08/27 05:06:57;;;;;;;2.10;2.00;;;;;;;25.65;82.22;99160.19;5111287;28;20237;-76
2023/08/27 05:09:24;;;;;;;3.93;2.43;;;;;;;25.88;81.27;99163.22;5111818;28;20198;-76
2023/08/27 05:11:50;;;;;;;2.53;2.03;;;;;;;26.01;81.80;99153.97;5111252;28;20247;-76
2023/08/27 05:14:17;;;;;;;7.43;2.43;;;;;;;26.26;80.00;99164.75;5111468;28;20282;-76
2023/08/27 05:16:44;;;;;;;2.73;2.53;;;;;;;26.38;78.61;99168.81;5111503;28;20693;-76
2023/08/27 05:19:11;;;;;;;2.47;2.33;;;;;;;26.51;77.32;99163.97;5111305;28;20753;-77
2023/08/27 05:21:39;;;;;;;4.13;2.50;;;;;;;26.67;77.25;99172.00;5111849;28;20197;-77
2023/08/27 05:24:06;;;;;;;2.20;2.00;;;;;;;26.65;76.16;99171.31;5111458;28;20194;-76
2023/08/27 05:26:33;;;;;;;2.87;2.13;;;;;;;26.64;75.87;99174.94;5111407;28;20272;-76
2023/08/27 05:29:00;;;;;;;2.10;2.00;;;;;;;26.78;75.65;99177.00;5114967;28;20243;-76
2023/08/27 05:31:27;;;;;;;1.87;1.77;;;;;;;26.85;73.52;99172.00;5115818;28;20267;-76
2023/08/27 05:33:54;;;;;;;3.83;2.10;;;;;;;27.08;74.84;99178.34;5115502;28;20195;-76
2023/08/27 05:36:21;;;;;;;2.13;2.03;;;;;;;27.25;72.29;99169.56;5115520;28;20194;-76
2023/08/27 05:38:49;;;;;;;1.90;1.80;;;;;;;27.50;72.94;99168.72;5115427;28;20285;-77
2023/08/27 05:41:16;;;;;;;2.57;1.90;;;;;;;27.74;70.07;99165.34;5115401;27;20275;-76
2023/08/27 05:43:43;;;;;;;2.40;2.20;;;;;;;27.98;69.70;99173.28;5115243;28;20615;-76
2023/08/27 05:46:10;;;;;;;2.50;2.23;;;;;;;28.23;69.28;99176.00;5115098;28;20277;-77
2023/08/27 05:48:37;;;;;;;7.17;2.07;;;;;;;28.41;66.70;99176.66;5115428;28;20191;-77
2023/08/27 05:51:04;;;;;;;1.90;1.80;;;;;;;28.58;65.33;99183.59;5115157;28;20202;-76
2023/08/27 05:53:31;;;;;;;2.07;1.53;;;;;;;28.74;63.74;99172.22;5115057;28;20599;-77
2023/08/27 05:55:59;;;;;;;1.73;1.63;;;;;;;28.85;64.00;99167.44;5115022;28;20243;-77
2023/08/27 05:58:26;;;;;;;2.17;2.07;;;;;;;28.99;65.26;99166.72;5114922;27;20688;-77
2023/08/27 06:00:53;;;;;;;1.90;1.77;;;;;;;29.08;62.27;99173.63;5114864;28;20203;-76
2023/08/27 06:03:20;;;;;;;5.93;2.30;;;;;;;29.26;63.67;99165.53;5114633;28;20286;-77
2023/08/27 06:05:47;;;;;;;2.00;1.90;;;;;;;29.40;62.09;99167.47;5114545;28;20219;-77
2023/08/27 06:08:14;;;;;;;2.08;1.98;;;;;;;29.46;61.24;99165.94;5114591;27;20704;-77
2023/08/27 06:10:41;;;;;;;2.40;2.20;;;;;;;29.58;63.01;99180.41;5114868;27;20186;-77
2023/08/27 06:13:09;;;;;;;2.72;2.53;;;;;;;29.72;63.05;99177.06;5114692;28;20248;-77
2023/08/27 06:15:37;;;;;;;1.73;1.63;;;;;;;29.84;61.29;99177.50;5114860;28;20198;-77
2023/08/27 06:18:05;;;;;;;3.90;2.22;;;;;;;30.04;60.78;99182.19;5115190;28;20199;-77
2023/08/27 06:20:32;;;;;;;2.35;2.15;;;;;;;30.16;61.67;99178.13;5114638;28;20718;-77
2023/08/27 06:22:58;;;;;;;3.10;1.90;;;;;;;30.40;58.17;99179.78;5114870;28;20606;-77
2023/08/27 06:25:25;;;;;;;1.92;1.83;;;;;;;30.56;58.73;99181.47;5114351;28;20720;-77
2023/08/27 06:27:55;;;;;;;2.15;2.03;;;;;;;30.55;56.77;99161.31;5114348;28;20214;-77
2023/08/27 06:30:23;;;;;;;2.25;2.10;;;;;;;30.79;55.28;99179.59;5114263;28;20256;-77
2023/08/27 06:32:49;;;;;;;2.47;2.20;;;;;;;30.95;56.02;99174.19;5114386;28;20218;-77
2023/08/27 06:35:16;;;;;;;2.88;1.95;;;;;;;30.97;56.17;99174.81;5114328;28;20191;-77
2023/08/27 06:37:43;;;;;;;2.30;1.90;;;;;;;31.07;54.68;99180.66;5114369;28;20278;-77
2023/08/27 06:40:12;;;;;;;2.72;2.35;;;;;;;31.08;55.38;99186.78;5113440;28;20268;-77
2023/08/27 06:42:39;;;;;;;2.58;2.15;;;;;;;31.10;54.55;99184.78;5114161;28;20279;-77
2023/08/27 06:45:07;;;;;;;2.63;2.10;;;;;;;31.23;54.93;99191.06;5114410;28;20202;-77
2023/08/27 06:47:35;;;;;;;2.20;2.05;;;;;;;31.47;54.45;99181.19;5113987;28;20293;-77
2023/08/27 06:50:04;;;;;;;2.20;2.00;;;;;;;31.55;53.92;99174.00;5114131;28;20731;-77
2023/08/27 06:52:31;;;;;;;2.45;1.50;;;;;;;31.81;53.81;99178.78;5114104;27;20197;-77
2023/08/27 06:54:58;;;;;;;2.28;2.17;;;;;;;31.93;52.95;99171.97;5114272;28;20198;-77
2023/08/27 06:57:25;;;;;;;1.90;1.80;;;;;;;32.04;52.59;99174.16;5113880;27;20210;-76
2023/08/27 06:59:52;;;;;;;1.90;1.80;;;;;;;32.10;53.13;99172.59;5113635;28;20183;-77
2023/08/27 07:02:19;;;;;;;1.90;1.80;;;;;;;32.13;52.12;99165.06;5113654;28;20199;-77
2023/08/27 07:04:47;;;;;;;4.75;2.85;;;;;;;32.32;51.38;99168.09;5114018;28;20256;-77
2023/08/27 07:07:14;;;;;;;2.20;2.00;;;;;;;32.50;51.02;99163.16;5113443;27;20766;-77
2023/08/27 07:09:41;;;;;;;2.00;1.90;;;;;;;32.52;50.42;99159.28;5113497;28;20198;-77
2023/08/27 07:12:09;;;;;;;2.20;2.10;;;;;;;32.53;49.33;99163.59;5114063;28;20195;-77
2023/08/27 07:14:35;;;;;;;2.25;2.15;;;;;;;32.72;49.29;99162.13;5113621;28;20252;-77
2023/08/27 07:17:02;;;;;;;1.90;1.80;;;;;;;32.43;50.21;99163.09;5113827;28;20669;-77
2023/08/27 07:19:29;;;;;;;1.73;1.63;;;;;;;32.35;50.65;99159.75;5113373;28;20228;-77
2023/08/27 07:21:57;;;;;;;2.40;2.20;;;;;;;32.24;51.64;99158.44;5113355;28;20658;-77
2023/08/27 07:24:24;;;;;;;2.40;2.13;;;;;;;32.11;51.82;99156.50;5113461;28;20194;-77
2023/08/27 07:26:50;;;;;;;1.98;1.88;;;;;;;32.18;51.61;99149.38;5113200;28;20195;-77
2023/08/27 07:29:17;;;;;;;2.85;2.65;;;;;;;32.47;50.62;99152.94;5113287;28;20198;-78
2023/08/27 07:31:45;;;;;;;2.15;1.77;;;;;;;32.41;49.39;99157.16;5113251;28;20187;-77
2023/08/27 07:34:11;;;;;;;2.20;2.03;;;;;;;32.50;51.10;99149.88;5113331;28;20222;-78
2023/08/27 07:36:39;;;;;;;2.03;1.92;;;;;;;32.46;50.12;99148.63;5112702;28;20199;-77
2023/08/27 07:39:07;;;;;;;4.35;2.38;;;;;;;32.64;49.14;99146.34;5113140;28;20737;-77
2023/08/27 07:41:34;;;;;;;2.10;2.00;;;;;;;32.68;50.16;99144.94;5113201;28;20278;-78
2023/08/27 07:44:01;;;;;;;2.10;1.90;;;;;;;32.66;50.40;99144.31;5113236;28;20195;-78
2023/08/27 07:46:28;;;;;;;5.43;3.05;;;;;;;32.90;51.29;99137.72;5112965;28;20730;-78
2023/08/27 07:48:54;;;;;;;2.78;2.58;;;;;;;33.07;50.13;99134.56;5112590;27;20271;-78
2023/08/27 07:51:21;;;;;;;3.85;2.20;;;;;;;33.17;48.22;99134.22;5119443;27;20221;-78
2023/08/27 07:53:48;;;;;;;2.60;2.45;;;;;;;33.22;48.73;99132.63;5133666;27;20550;-78
2023/08/27 07:56:16;;;;;;;5.38;2.70;;;;;;;33.20;48.84;99128.53;5120488;27;20726;-78
2023/08/27 07:58:43;;;;;;;2.15;2.05;;;;;;;33.48;47.51;99139.06;5109660;28;20190;-77
2023/08/27 08:01:09;;;;;;;2.28;2.17;;;;;;;33.26;46.74;99131.22;5112560;28;20661;-78
2023/08/27 08:03:36;;;;;;;2.58;2.47;;;;;;;32.91;47.33;99129.56;5132227;27;20673;-78
2023/08/27 08:06:03;;;;;;;2.13;2.03;;;;;;;33.19;48.72;99122.38;5132874;27;20640;-79
2023/08/27 08:08:30;;;;;;;2.20;2.10;;;;;;;33.46;46.29;99131.28;5133007;27;20221;-78
2023/08/27 08:10:57;;;;;;;2.13;2.00;;;;;;;33.44;45.93;99132.53;5133073;27;20198;-78
2023/08/27 08:13:26;;;;;;;2.00;1.90;;;;;;;33.27;46.53;99121.41;5133038;27;20190;-78
2023/08/27 08:15:53;;;;;;;2.45;2.15;;;;;;;33.57;46.41;99135.22;5133008;27;20281;-78
2023/08/27 08:18:20;;;;;;;2.63;2.35;;;;;;;33.75;46.26;99132.84;5132841;27;20698;-78
2023/08/27 08:20:47;;;;;;;2.22;2.10;;;;;;;33.53;46.29;99133.97;5132648;27;20220;-77
2023/08/27 08:23:14;;;;;;;2.05;1.95;;;;;;;33.35;45.88;99123.88;5133246;27;20193;-78
2023/08/27 08:25:43;;;;;;;2.58;2.47;;;;;;;33.39;46.91;99127.78;5133020;27;20251;-78
2023/08/27 08:28:10;;;;;;;2.38;2.28;;;;;;;33.35;44.84;99125.72;5132798;27;20274;-78
2023/08/27 08:30:44;;;;;;;2.20;2.10;;;;;;;33.11;45.82;99119.91;5132763;27;20194;-79
2023/08/27 08:33:11;;;;;;;3.03;2.00;;;;;;;33.22;46.41;99123.81;5132816;27;20541;-78
2023/08/27 08:35:38;;;;;;;2.45;2.30;;;;;;;33.23;44.60;99123.63;5132674;27;20198;-78
2023/08/27 08:38:05;;;;;;;4.85;2.00;;;;;;;33.57;44.49;99121.94;5132622;27;20226;-78
2023/08/27 08:40:32;;;;;;;1.92;1.83;;;;;;;33.68;44.74;99113.38;5132431;27;20545;-77
2023/08/27 08:42:59;;;;;;;2.10;2.00;;;;;;;33.82;43.59;99115.06;5132233;27;20193;-79
2023/08/27 08:45:30;;;;;;;1.80;1.70;;;;;;;33.81;45.49;99116.06;5132398;27;20752;-78
2023/08/27 08:48:01;;;;;;;1.90;1.80;;;;;;;33.99;45.96;99107.53;5132369;27;20712;-79
2023/08/27 08:50:32;;;;;;;1.83;1.73;;;;;;;34.35;42.97;99112.47;5132509;27;20572;-79
2023/08/27 08:53:07;;;;;;;2.03;1.65;;;;;;;34.48;43.61;99104.47;5132102;27;20715;-78
2023/08/27 08:55:36;;;;;;;1.90;1.80;;;;;;;34.23;43.32;99105.09;5132364;27;20209;-78
2023/08/27 08:58:07;;;;;;;2.30;2.08;;;;;;;34.30;42.94;99097.13;5131889;27;20699;-79
2023/08/27 09:00:35;;;;;;;1.80;1.70;;;;;;;34.42;44.72;99099.97;5131818;27;20281;-77
2023/08/27 09:03:04;;;;;;;2.75;2.13;;;;;;;34.23;42.04;99089.13;5111254;28;20195;-78
2023/08/27 09:05:32;;;;;;;3.60;1.98;;;;;;;34.33;42.06;99077.25;5111687;28;20191;-78
2023/08/27 09:08:00;;;;;;;1.98;1.88;;;;;;;34.27;42.12;99084.22;5111305;28;20214;-78
2023/08/27 09:10:28;;;;;;;1.90;1.80;;;;;;;34.45;42.39;99076.41;5111614;28;20734;-78
2023/08/27 09:12:56;;;;;;;1.67;1.58;;;;;;;34.55;42.36;99082.13;5111600;28;20194;-79
2023/08/27 09:15:23;;;;;;;2.47;2.28;;;;;;;34.54;39.77;99082.34;5111697;28;20198;-78
2023/08/27 09:17:50;;;;;;;3.33;1.75;;;;;;;34.55;41.56;99075.97;5111822;28;20275;-78
2023/08/27 09:20:19;;;;;;;1.58;1.38;;;;;;;34.70;40.94;99068.63;5111532;28;20191;-78
2023/08/27 09:22:46;;;;;;;2.63;1.95;;;;;;;34.49;41.38;99071.50;5111622;28;20198;-79
2023/08/27 09:25:14;;;;;;;2.03;1.92;;;;;;;34.36;42.23;99066.19;5111297;28;20554;-78
2023/08/27 09:27:42;;;;;;;2.28;1.70;;;;;;;34.50;43.45;99055.31;5111544;28;20218;-78
2023/08/27 09:30:10;;;;;;;2.55;2.30;;;;;;;34.77;42.84;99058.75;5111272;28;20666;-79
2023/08/27 09:32:37;;;;;;;2.25;2.03;;;;;;;35.07;42.29;99056.41;5111274;28;20195;-78
2023/08/27 09:35:05;;;;;;;1.60;1.50;;;;;;;35.01;40.63;99055.41;5111084;28;20248;-77
2023/08/27 09:37:41;;;;;;;1.92;1.77;;;;;;;34.71;40.43;99056.94;5110934;28;20639;-78
2023/08/27 09:40:09;;;;;;;2.00;1.80;;;;;;;34.70;41.01;99042.00;5111147;28;20255;-78
2023/08/27 09:42:36;;;;;;;2.15;1.70;;;;;;;34.90;42.82;99040.06;5111110;28;20252;-78
2023/08/27 09:45:03;;;;;;;3.65;1.52;;;;;;;35.02;39.85;99043.72;5116297;28;20668;-78
2023/08/27 09:47:31;;;;;;;1.88;1.77;;;;;;;35.03;38.87;99042.69;5131520;27;20255;-77
2023/08/27 09:49:58;;;;;;;3.90;1.77;;;;;;;35.14;39.66;99043.91;5131886;27;20222;-79
2023/08/27 09:52:25;;;;;;;2.10;1.95;;;;;;;35.18;37.72;99045.94;5131531;27;20202;-78
2023/08/27 09:54:53;;;;;;;2.10;2.00;;;;;;;35.38;38.42;99040.50;5131610;27;20190;-78
2023/08/27 09:57:21;;;;;;;1.73;1.63;;;;;;;35.48;37.29;99040.03;5131928;27;20250;-78
2023/08/27 09:59:48;;;;;;;1.25;1.15;;;;;;;35.17;38.42;99038.97;5131713;27;20190;-78
2023/08/27 10:02:15;;;;;;;2.47;1.95;;;;;;;35.33;39.33;99026.16;5131541;27;20190;-78
2023/08/27 10:04:49;;;;;;;1.85;1.75;;;;;;;35.63;40.48;99028.06;5131414;27;20198;-79
2023/08/27 10:07:16;;;;;;;1.67;1.60;;;;;;;35.82;38.44;99036.94;5131524;27;20274;-78
2023/08/27 10:09:43;;;;;;;1.80;1.70;;;;;;;35.72;38.97;99025.94;5131285;27;20278;-79
2023/08/27 10:12:12;;;;;;;1.98;1.88;;;;;;;35.79;38.73;99027.53;5131620;27;20194;-78
2023/08/27 10:14:40;;;;;;;1.85;1.75;;;;;;;35.44;37.62;99020.16;5132573;27;20190;-78
2023/08/27 10:17:07;;;;;;;2.00;1.90;;;;;;;35.46;37.73;99026.09;5135156;27;20660;-79
2023/08/27 10:19:36;;;;;;;1.65;1.55;;;;;;;35.08;39.58;99023.41;5135065;27;20664;-79
2023/08/27 10:22:05;;;;;;;1.63;1.45;;;;;;;35.25;41.39;99017.38;5111885;28;20669;-79
2023/08/27 10:24:32;;;;;;;1.83;1.75;;;;;;;35.38;39.99;99013.03;5114795;28;20206;-79
2023/08/27 10:26:59;;;;;;;6.90;1.85;;;;;;;35.36;37.93;99015.88;5114592;28;20263;-78
2023/08/27 10:29:29;;;;;;;1.38;1.35;;;;;;;35.25;38.67;99008.59;5114534;28;20237;-79
2023/08/27 10:31:56;;;;;;;1.73;1.63;;;;;;;35.11;38.08;99009.69;5114280;28;20201;-79
2023/08/27 10:34:24;;;;;;;1.95;1.50;;;;;;;35.04;38.23;99014.19;5114131;28;20187;-78
2023/08/27 10:36:53;;;;;;;2.45;1.98;;;;;;;35.25;41.01;99004.06;5113959;28;20206;-79
2023/08/27 10:39:25;;;;;;;2.00;1.90;;;;;;;35.50;38.95;99006.78;5114278;28;20685;-79
2023/08/27 10:41:52;;;;;;;1.70;1.60;;;;;;;35.24;37.78;98999.78;5114334;28;20198;-78
2023/08/27 10:44:20;;;;;;;1.60;1.50;;;;;;;35.36;37.78;99001.75;5114123;28;20282;-78
2023/08/27 10:47:09;;;;;;;1.88;1.23;;;;;;;35.32;37.46;98997.88;5114060;27;20282;-78
2023/08/27 10:49:37;;;;;;;1.50;1.40;;;;;;;35.41;37.48;98996.59;5113858;27;20214;-77
2023/08/27 10:52:14;;;;;;;1.10;1.10;;;;;;;35.48;36.49;98992.84;5114224;28;20199;-79
2023/08/27 10:54:40;;;;;;;1.55;1.45;;;;;;;35.46;36.59;98994.91;5113775;28;20191;-78
2023/08/27 10:57:17;;;;;;;1.20;1.20;;;;;;;35.49;35.78;98983.00;5113527;28;20219;-79
2023/08/27 10:59:44;;;;;;;1.20;1.20;;;;;;;35.39;34.73;98993.31;5113779;28;20669;-77
2023/08/27 11:02:14;;;;;;;1.08;1.08;;;;;;;35.23;36.04;98979.47;5113953;27;20193;-78
2023/08/27 11:04:43;;;;;;;1.20;1.10;;;;;;;34.98;34.84;98975.91;5113864;28;20200;-78
2023/08/27 11:07:11;;;;;;;1.13;1.02;;;;;;;35.02;36.75;98976.28;5114130;28;20218;-79
2023/08/27 11:09:47;;;;;;;1.50;1.40;;;;;;;35.16;37.55;98973.34;5113522;28;20302;-77
2023/08/27 11:12:24;;;;;;;3.08;1.40;;;;;;;35.25;36.60;98976.59;5113236;27;20198;-78
2023/08/27 11:14:51;;;;;;;1.83;1.73;;;;;;;35.34;36.91;98974.50;5112894;28;20194;-78
2023/08/27 11:17:27;;;;;;;1.10;1.10;;;;;;;35.35;36.98;98965.47;5113074;28;20198;-78
2023/08/27 11:19:54;;;;;;;1.73;1.63;;;;;;;35.40;37.94;98969.13;5113677;28;20190;-78
2023/08/27 11:22:23;;;;;;;4.97;1.50;;;;;;;35.40;36.09;98974.44;5113655;28;20601;-77
2023/08/27 11:24:52;;;;;;;2.10;1.20;;;;;;;35.13;36.68;98965.78;5113747;28;20620;-77
2023/08/27 11:27:22;;;;;;;1.10;1.00;;;;;;;35.04;35.58;98968.88;5113356;28;20278;-76
2023/08/27 11:29:51;;;;;;;1.40;1.30;;;;;;;35.03;37.79;98960.06;5113370;28;20708;-78
2023/08/27 11:32:19;;;;;;;1.10;0.98;;;;;;;35.09;36.98;98966.41;5113120;28;20206;-77
2023/08/27 11:34:50;;;;;;;1.13;1.13;;;;;;;35.01;36.79;98964.00;5113618;28;20245;-77
2023/08/27 11:37:17;;;;;;;1.15;1.05;;;;;;;34.93;37.61;98951.72;5113349;28;20198;-78